createdAt,value
2023-01-21T00:00:29.703Z,4.47
2023-01-21T00:02:34.119Z,3.47
2023-01-21T00:04:38.003Z,4.00
2023-01-21T00:06:39.722Z,3.87
2023-01-21T00:08:41.845Z,4.40
2023-01-21T00:10:43.687Z,4.30
2023-01-21T00:12:45.387Z,4.30
2023-01-21T00:14:47.160Z,4.53
2023-01-21T00:16:51.692Z,4.37
2023-01-21T00:18:53.382Z,4.47
2023-01-21T00:20:55.084Z,4.03
2023-01-21T00:22:56.840Z,4.17
2023-01-21T00:24:58.784Z,4.10
2023-01-21T00:27:00.555Z,4.00
2023-01-21T00:29:02.226Z,4.43
2023-01-21T00:31:06.626Z,4.23
2023-01-21T00:33:09.681Z,4.30
2023-01-21T00:35:11.582Z,4.07
2023-01-21T00:37:13.289Z,4.53
2023-01-21T00:39:15.034Z,4.53
2023-01-21T00:41:19.332Z,5.20
2023-01-21T00:43:21.030Z,5.13
2023-01-21T00:45:22.819Z,4.63
2023-01-21T00:47:24.938Z,4.87
2023-01-21T00:49:28.687Z,5.53
2023-01-21T00:51:33.360Z,5.23
2023-01-21T00:53:40.120Z,5.47
2023-01-21T00:55:41.853Z,5.80
2023-01-21T00:57:43.798Z,5.97
2023-01-21T00:59:45.867Z,5.83
2023-01-21T01:01:47.691Z,5.67
2023-01-21T01:03:54.527Z,6.37
2023-01-21T01:06:02.039Z,6.10
2023-01-21T01:08:04.163Z,6.53
2023-01-21T01:10:06.542Z,6.13
2023-01-21T01:12:08.353Z,6.20
2023-01-21T01:14:10.160Z,6.10
2023-01-21T01:16:14.898Z,6.50
2023-01-21T01:18:19.078Z,6.67
2023-01-21T01:20:20.827Z,7.13
2023-01-21T01:22:22.669Z,7.23
2023-01-21T01:24:24.431Z,7.23
2023-01-21T01:26:27.063Z,6.47
2023-01-21T01:28:30.117Z,6.63
2023-01-21T01:30:35.522Z,6.17
2023-01-21T01:32:39.784Z,6.80
2023-01-21T01:34:41.814Z,6.20
2023-01-21T01:36:45.846Z,6.70
2023-01-21T01:38:47.672Z,6.00
2023-01-21T01:40:50.790Z,6.53
2023-01-21T01:42:54.960Z,6.03
2023-01-21T01:45:02.674Z,6.87
2023-01-21T01:47:06.661Z,5.80
2023-01-21T01:49:16.733Z,6.27
2023-01-21T01:51:24.013Z,6.57
2023-01-21T01:53:27.816Z,6.50
2023-01-21T01:55:33.876Z,6.27
2023-01-21T01:57:39.608Z,5.90
2023-01-21T01:59:42.993Z,6.40
2023-01-21T02:01:44.839Z,6.27
2023-01-21T02:03:54.309Z,5.70
2023-01-21T02:05:56.185Z,5.87
2023-01-21T02:07:57.948Z,5.70
2023-01-21T02:09:59.784Z,5.80
2023-01-21T02:12:03.887Z,6.20
2023-01-21T02:14:06.255Z,5.70
2023-01-21T02:16:26.266Z,5.87
2023-01-21T02:19:05.817Z,6.10
2023-01-21T02:21:24.745Z,5.80
2023-01-21T02:24:11.262Z,5.10
2023-01-21T02:26:34.952Z,5.60
2023-01-21T02:29:06.914Z,5.50
2023-01-21T02:31:27.410Z,4.93
2023-01-21T02:33:49.099Z,5.43
2023-01-21T02:36:25.796Z,5.57
2023-01-21T02:38:40.957Z,5.20
2023-01-21T02:41:22.141Z,5.40
2023-01-21T02:43:47.055Z,5.50
2023-01-21T02:45:55.285Z,5.60
2023-01-21T02:48:06.466Z,5.43
2023-01-21T02:50:13.477Z,5.00
2023-01-21T02:52:22.935Z,4.87
2023-01-21T02:54:39.820Z,5.00
2023-01-21T02:56:42.855Z,5.37
2023-01-21T02:58:55.941Z,5.00
2023-01-21T03:01:00.233Z,5.00
2023-01-21T03:03:30.490Z,5.00
2023-01-21T03:05:51.941Z,5.00
2023-01-21T03:08:05.856Z,4.80
2023-01-21T03:10:16.627Z,4.43
2023-01-21T03:12:43.879Z,4.80
2023-01-21T03:15:16.486Z,5.00
2023-01-21T03:17:37.819Z,4.73
2023-01-21T03:19:49.425Z,5.03
2023-01-21T03:21:52.648Z,4.90
2023-01-21T03:23:57.661Z,4.80
2023-01-21T03:26:00.918Z,4.53
2023-01-21T03:28:07.672Z,5.27
2023-01-21T03:30:14.115Z,4.67
2023-01-21T03:32:18.269Z,5.00
2023-01-21T03:34:22.298Z,4.13
2023-01-21T03:36:45.048Z,4.50
2023-01-21T03:38:51.663Z,4.20
2023-01-21T03:41:01.636Z,4.07
2023-01-21T03:43:04.123Z,3.97
2023-01-21T03:45:07.114Z,4.17
2023-01-21T03:47:31.953Z,4.17
2023-01-21T03:49:47.198Z,4.13
2023-01-21T03:51:56.033Z,3.80
2023-01-21T03:53:59.269Z,3.83
2023-01-21T03:56:01.152Z,4.00
2023-01-21T03:58:05.464Z,3.90
2023-01-21T04:00:08.512Z,3.70
2023-01-21T04:02:20.183Z,3.80
2023-01-21T04:04:22.119Z,3.90
2023-01-21T04:06:24.480Z,3.70
2023-01-21T04:08:26.606Z,4.13
2023-01-21T04:10:28.458Z,3.87
2023-01-21T04:12:30.603Z,3.80
2023-01-21T04:14:32.615Z,3.83
2023-01-21T04:16:34.621Z,4.20
2023-01-21T04:18:36.378Z,3.80
2023-01-21T04:20:38.674Z,3.50
2023-01-21T04:22:40.453Z,4.20
2023-01-21T04:24:42.300Z,4.13
2023-01-21T04:26:44.179Z,4.17
2023-01-21T04:28:46.118Z,4.00
2023-01-21T04:30:48.487Z,3.80
2023-01-21T04:32:50.365Z,3.70
2023-01-21T04:34:52.339Z,4.33
2023-01-21T04:36:57.000Z,3.70
2023-01-21T04:38:58.874Z,4.20
2023-01-21T04:41:00.780Z,3.70
2023-01-21T04:43:02.707Z,3.90
2023-01-21T04:45:07.865Z,4.30
2023-01-21T04:47:11.733Z,3.93
2023-01-21T04:49:13.553Z,4.07
2023-01-21T04:51:15.310Z,4.20
2023-01-21T04:53:17.304Z,4.57
2023-01-21T04:55:19.613Z,4.30
2023-01-21T04:57:21.564Z,4.27
2023-01-21T04:59:25.763Z,5.20
2023-01-21T05:01:27.789Z,4.80
2023-01-21T05:03:29.827Z,4.97
2023-01-21T05:05:32.009Z,5.30
2023-01-21T05:07:35.184Z,5.10
2023-01-21T05:09:36.957Z,4.90
2023-01-21T05:11:38.674Z,4.83
2023-01-21T05:13:40.382Z,5.40
2023-01-21T05:15:42.171Z,5.67
2023-01-21T05:17:45.069Z,5.70
2023-01-21T05:19:50.786Z,5.37
2023-01-21T05:21:52.814Z,5.93
2023-01-21T05:23:55.186Z,6.03
2023-01-21T05:25:57.015Z,5.90
2023-01-21T05:27:58.763Z,6.33
2023-01-21T05:30:00.528Z,5.90
2023-01-21T05:32:02.572Z,6.13
2023-01-21T05:34:04.373Z,6.63
2023-01-21T05:36:06.554Z,6.27
2023-01-21T05:38:08.357Z,6.70
2023-01-21T05:40:10.752Z,6.53
2023-01-21T05:42:12.521Z,6.33
2023-01-21T05:44:16.649Z,7.07
2023-01-21T05:46:19.566Z,6.90
2023-01-21T05:48:21.969Z,6.70
2023-01-21T05:50:23.715Z,6.77
2023-01-21T05:52:26.018Z,7.10
2023-01-21T05:54:27.763Z,7.10
2023-01-21T05:56:29.402Z,7.57
2023-01-21T05:58:31.248Z,6.60
2023-01-21T06:00:33.460Z,6.90
2023-01-21T06:02:35.293Z,7.20
2023-01-21T06:04:37.196Z,7.30
2023-01-21T06:06:43.319Z,7.17
2023-01-21T06:08:46.225Z,7.03
2023-01-21T06:10:47.954Z,7.53
2023-01-21T06:12:51.757Z,7.50
2023-01-21T06:14:53.471Z,7.67
2023-01-21T06:16:55.242Z,7.13
2023-01-21T06:18:56.949Z,7.13
2023-01-21T06:21:01.885Z,6.40
2023-01-21T06:23:04.254Z,7.03
2023-01-21T06:25:08.850Z,7.20
2023-01-21T06:27:10.951Z,7.23
2023-01-21T06:29:12.770Z,7.37
2023-01-21T06:31:14.637Z,6.43
2023-01-21T06:33:16.527Z,7.27
2023-01-21T06:35:18.863Z,7.70
2023-01-21T06:37:20.537Z,7.27
2023-01-21T06:39:22.351Z,7.57
2023-01-21T06:41:24.092Z,6.80
2023-01-21T06:43:28.771Z,7.83
2023-01-21T06:45:30.636Z,7.77
2023-01-21T06:47:32.675Z,8.53
2023-01-21T06:49:34.422Z,8.17
2023-01-21T06:51:36.187Z,7.70
2023-01-21T06:53:37.883Z,8.00
2023-01-21T06:55:40.387Z,8.50
2023-01-21T06:57:43.143Z,8.30
2023-01-21T06:59:45.104Z,8.57
2023-01-21T07:01:47.072Z,7.73
2023-01-21T07:03:48.747Z,9.30
2023-01-21T07:05:50.498Z,9.03
2023-01-21T07:07:56.694Z,9.17
2023-01-21T07:09:58.757Z,9.73
2023-01-21T07:12:00.633Z,9.23
2023-01-21T07:14:03.685Z,8.97
2023-01-21T07:16:06.978Z,9.60
2023-01-21T07:18:08.887Z,9.30
2023-01-21T07:20:12.471Z,9.93
2023-01-21T07:22:14.180Z,9.30
2023-01-21T07:24:16.075Z,9.77
2023-01-21T07:26:18.012Z,9.37
2023-01-21T07:28:19.756Z,9.50
2023-01-21T07:30:21.691Z,9.67
2023-01-21T07:32:23.418Z,9.80
2023-01-21T07:34:25.232Z,10.83
2023-01-21T07:36:27.595Z,9.70
2023-01-21T07:38:29.276Z,10.40
2023-01-21T07:40:31.061Z,10.83
2023-01-21T07:42:33.296Z,10.87
2023-01-21T07:44:37.255Z,9.80
2023-01-21T07:46:39.155Z,9.80
2023-01-21T07:48:43.424Z,10.60
2023-01-21T07:50:45.416Z,10.23
2023-01-21T07:52:47.247Z,9.97
2023-01-21T07:54:49.003Z,10.43
2023-01-21T07:56:50.673Z,10.90
2023-01-21T07:58:52.602Z,10.13
2023-01-21T08:00:54.281Z,11.70
2023-01-21T08:02:57.299Z,11.60
2023-01-21T08:04:59.025Z,11.50
2023-01-21T08:07:13.274Z,11.10
2023-01-21T08:09:15.146Z,11.50
2023-01-21T08:11:16.865Z,10.97
2023-01-21T08:13:19.026Z,9.57
2023-01-21T08:15:22.681Z,11.40
2023-01-21T08:17:24.401Z,10.60
2023-01-21T08:19:26.519Z,10.93
2023-01-21T08:21:28.213Z,10.93
2023-01-21T08:23:29.969Z,11.50
2023-01-21T08:25:31.722Z,11.10
2023-01-21T08:27:34.447Z,11.97
2023-01-21T08:29:36.331Z,11.60
2023-01-21T08:31:38.081Z,11.07
2023-01-21T08:33:39.933Z,11.47
2023-01-21T08:35:44.020Z,11.03
2023-01-21T08:37:45.710Z,11.70
2023-01-21T08:39:47.474Z,11.57
2023-01-21T08:41:49.301Z,11.73
2023-01-21T08:43:52.603Z,11.40
2023-01-21T08:45:59.219Z,11.20
2023-01-21T08:48:03.830Z,11.57
2023-01-21T08:50:07.463Z,12.20
2023-01-21T08:52:13.048Z,11.33
2023-01-21T08:54:17.388Z,10.57
2023-01-21T08:56:19.674Z,11.07
2023-01-21T08:58:21.421Z,11.47
2023-01-21T09:00:24.006Z,11.20
2023-01-21T09:02:25.923Z,10.57
2023-01-21T09:04:27.790Z,11.17
2023-01-21T09:06:31.652Z,10.47
2023-01-21T09:08:36.110Z,10.47
2023-01-21T09:10:56.673Z,11.10
2023-01-21T09:12:58.644Z,10.30
2023-01-21T09:15:00.418Z,9.90
2023-01-21T09:17:02.104Z,10.20
2023-01-21T09:19:04.360Z,10.37
2023-01-21T09:21:07.269Z,10.10
2023-01-21T09:23:25.406Z,8.77
2023-01-21T09:25:27.210Z,10.03
2023-01-21T09:27:29.119Z,10.60
2023-01-21T09:29:30.796Z,10.50
2023-01-21T09:31:32.593Z,10.50
2023-01-21T09:33:36.907Z,10.27
2023-01-21T09:35:39.089Z,10.97
2023-01-21T09:37:40.832Z,11.20
2023-01-21T09:39:42.485Z,9.87
2023-01-21T09:41:49.473Z,10.30
2023-01-21T09:44:15.812Z,11.20
2023-01-21T09:46:27.702Z,10.97
2023-01-21T09:48:37.928Z,10.80
2023-01-21T09:50:46.495Z,11.13
2023-01-21T09:52:51.625Z,10.13
2023-01-21T09:54:57.081Z,11.17
2023-01-21T09:57:33.140Z,11.50
2023-01-21T09:59:47.848Z,11.17
2023-01-21T10:01:51.581Z,10.93
2023-01-21T10:04:01.182Z,10.90
2023-01-21T10:06:03.500Z,9.83
2023-01-21T10:08:31.112Z,10.43
2023-01-21T10:10:50.069Z,10.00
2023-01-21T10:13:03.628Z,10.70
2023-01-21T10:15:13.147Z,11.27
2023-01-21T10:17:51.909Z,11.10
2023-01-21T10:20:11.472Z,9.30
2023-01-21T10:22:26.537Z,12.23
2023-01-21T10:24:45.278Z,11.83
2023-01-21T10:26:50.591Z,10.73
2023-01-21T10:28:59.243Z,10.10
2023-01-21T10:31:08.514Z,9.50
2023-01-21T10:33:30.671Z,10.80
2023-01-21T10:36:05.835Z,11.33
2023-01-21T10:38:23.092Z,10.23
2023-01-21T10:40:55.751Z,10.50
2023-01-21T10:43:07.005Z,13.37
2023-01-21T10:45:14.711Z,11.87
2023-01-21T10:47:28.468Z,11.53
2023-01-21T10:49:36.217Z,11.23
2023-01-21T10:51:52.047Z,11.53
2023-01-21T10:54:05.030Z,11.10
2023-01-21T10:56:32.121Z,11.93
2023-01-21T10:58:37.390Z,10.97
2023-01-21T11:00:47.332Z,11.40
2023-01-21T11:02:57.710Z,11.73
2023-01-21T11:05:04.706Z,10.80
2023-01-21T11:07:09.833Z,11.00
2023-01-21T11:09:14.415Z,10.97
2023-01-21T11:11:30.192Z,10.87
2023-01-21T11:13:32.247Z,11.50
2023-01-21T11:15:34.100Z,11.50
2023-01-21T11:17:40.219Z,10.97
2023-01-21T11:19:42.253Z,11.07
2023-01-21T11:22:05.381Z,10.37
2023-01-21T11:24:25.144Z,11.33
2023-01-21T11:26:30.181Z,11.67
2023-01-21T11:28:35.360Z,10.90
2023-01-21T11:30:58.273Z,11.53
2023-01-21T11:33:18.935Z,11.83
2023-01-21T11:35:22.795Z,10.43
2023-01-21T11:37:27.715Z,11.07
2023-01-21T11:39:36.509Z,11.20
2023-01-21T11:41:38.710Z,10.63
2023-01-21T11:43:50.121Z,12.63
2023-01-21T11:45:55.692Z,11.27
2023-01-21T11:47:59.211Z,10.97
2023-01-21T11:50:34.732Z,11.73
2023-01-21T11:52:37.641Z,10.97
2023-01-21T11:54:40.340Z,11.00
2023-01-21T11:56:52.694Z,10.40
2023-01-21T11:58:57.811Z,10.53
2023-01-21T12:01:05.586Z,10.50
2023-01-21T12:03:07.614Z,10.57
2023-01-21T12:05:18.001Z,10.67
2023-01-21T12:07:22.490Z,10.60
2023-01-21T12:09:25.035Z,11.20
2023-01-21T12:11:29.435Z,10.87
2023-01-21T12:14:18.886Z,10.97
2023-01-21T12:16:36.280Z,10.50
2023-01-21T12:18:59.068Z,10.13
2023-01-21T12:21:17.205Z,9.63
2023-01-21T12:23:34.037Z,10.70
2023-01-21T12:25:46.999Z,10.40
2023-01-21T12:28:06.176Z,10.83
2023-01-21T12:30:23.657Z,10.90
2023-01-21T12:32:40.445Z,10.33
2023-01-21T12:35:12.437Z,10.30
2023-01-21T12:37:24.578Z,10.20
2023-01-21T12:39:32.023Z,9.97
2023-01-21T12:41:36.855Z,10.10
2023-01-21T12:43:47.254Z,10.77
2023-01-21T12:45:55.330Z,10.37
2023-01-21T12:48:10.207Z,10.20
2023-01-21T12:50:23.574Z,10.17
2023-01-21T12:53:04.083Z,9.40
2023-01-21T12:55:23.412Z,10.17
2023-01-21T12:57:54.752Z,10.27
2023-01-21T12:59:59.744Z,10.17
2023-01-21T13:02:25.232Z,9.27
2023-01-21T13:04:52.072Z,10.13
2023-01-21T13:07:05.315Z,10.00
2023-01-21T13:09:20.516Z,10.43
2023-01-21T13:11:41.641Z,10.43
2023-01-21T13:14:05.491Z,9.93
2023-01-21T13:16:09.113Z,9.80
2023-01-21T13:18:30.723Z,9.70
2023-01-21T13:20:38.684Z,8.90
2023-01-21T13:22:54.774Z,8.87
2023-01-21T13:25:02.766Z,9.07
2023-01-21T13:27:13.463Z,8.00
2023-01-21T13:29:31.928Z,8.30
2023-01-21T13:31:49.714Z,8.60
2023-01-21T13:34:07.083Z,8.33
2023-01-21T13:36:14.596Z,8.50
2023-01-21T13:38:43.542Z,8.17
2023-01-21T13:41:11.467Z,8.10
2023-01-21T13:43:29.336Z,8.50
2023-01-21T13:45:52.905Z,8.77
2023-01-21T13:48:16.793Z,8.47
2023-01-21T13:50:32.521Z,8.70
2023-01-21T13:53:05.967Z,8.53
2023-01-21T13:55:33.593Z,9.60
2023-01-21T13:58:04.529Z,8.67
2023-01-21T14:00:19.985Z,8.77
2023-01-21T14:02:35.711Z,8.63
2023-01-21T14:04:46.930Z,8.50
2023-01-21T14:07:28.109Z,8.87
2023-01-21T14:09:40.895Z,8.70
2023-01-21T14:11:45.780Z,9.20
2023-01-21T14:14:27.810Z,9.80
2023-01-21T14:16:52.835Z,9.70
2023-01-21T14:19:18.845Z,9.17
2023-01-21T14:21:47.721Z,9.47
2023-01-21T14:23:55.202Z,9.63
2023-01-21T14:26:23.823Z,10.27
2023-01-21T14:28:46.796Z,10.70
2023-01-21T14:30:59.415Z,9.90
2023-01-21T14:33:15.834Z,10.73
2023-01-21T14:35:40.333Z,10.37
2023-01-21T14:37:47.843Z,10.77
2023-01-21T14:40:07.115Z,10.27
2023-01-21T14:42:15.782Z,10.63
2023-01-21T14:44:42.753Z,11.23
2023-01-21T14:47:14.689Z,11.23
2023-01-21T14:49:39.831Z,10.73
2023-01-21T14:51:49.948Z,11.07
2023-01-21T14:54:00.835Z,10.33
2023-01-21T14:56:10.490Z,10.03
2023-01-21T14:58:24.546Z,9.33
2023-01-21T15:00:37.018Z,10.40
2023-01-21T15:03:17.909Z,9.10
2023-01-21T15:05:36.906Z,9.47
2023-01-21T15:07:41.402Z,10.50
2023-01-21T15:09:49.991Z,11.30
2023-01-21T15:11:55.762Z,10.53
2023-01-21T15:14:24.434Z,10.30
2023-01-21T15:16:36.157Z,10.47
2023-01-21T15:18:41.216Z,10.07
2023-01-21T15:20:44.079Z,10.43
2023-01-21T15:22:48.097Z,10.47
2023-01-21T15:25:19.748Z,10.50
2023-01-21T15:27:28.052Z,10.80
2023-01-21T15:29:38.126Z,10.60
2023-01-21T15:31:44.637Z,10.57
2023-01-21T15:33:49.689Z,11.07
2023-01-21T15:35:54.028Z,10.83
2023-01-21T15:38:12.860Z,10.77
2023-01-21T15:40:22.761Z,11.73
2023-01-21T15:42:48.323Z,10.53
2023-01-21T15:45:00.247Z,10.37
2023-01-21T15:47:32.555Z,10.27
2023-01-21T15:49:41.197Z,11.37
2023-01-21T15:52:00.620Z,10.47
2023-01-21T15:54:34.590Z,11.80
2023-01-21T15:56:48.827Z,11.43
2023-01-21T15:59:23.698Z,10.77
2023-01-21T16:01:34.457Z,9.60
2023-01-21T16:03:45.192Z,10.60
2023-01-21T16:05:54.637Z,11.13
2023-01-21T16:08:14.447Z,11.30
2023-01-21T16:10:35.073Z,10.67
2023-01-21T16:12:50.354Z,10.67
2023-01-21T16:15:18.143Z,10.90
2023-01-21T16:17:34.786Z,10.00
2023-01-21T16:19:45.422Z,10.17
2023-01-21T16:21:52.742Z,9.57
2023-01-21T16:24:00.158Z,9.43
2023-01-21T16:26:02.737Z,9.03
2023-01-21T16:28:04.677Z,9.50
2023-01-21T16:30:11.615Z,9.67
2023-01-21T16:32:19.644Z,9.93
2023-01-21T16:34:40.771Z,8.70
2023-01-21T16:36:42.455Z,8.83
2023-01-21T16:38:46.767Z,8.73
2023-01-21T16:41:06.313Z,9.40
2023-01-21T16:43:23.251Z,8.87
2023-01-21T16:45:26.021Z,9.03
2023-01-21T16:47:39.590Z,8.33
2023-01-21T16:49:43.321Z,8.63
2023-01-21T16:52:00.032Z,8.77
2023-01-21T16:54:19.997Z,8.40
2023-01-21T16:56:29.528Z,8.47
2023-01-21T16:58:35.091Z,8.30
2023-01-21T17:00:36.774Z,8.40
2023-01-21T17:02:40.742Z,8.37
2023-01-21T17:04:42.571Z,8.93
2023-01-21T17:06:46.163Z,7.73
2023-01-21T17:08:53.927Z,8.33
2023-01-21T17:11:04.062Z,8.20
2023-01-21T17:13:12.804Z,8.20
2023-01-21T17:15:31.011Z,8.70
2023-01-21T17:17:37.455Z,7.90
2023-01-21T17:19:42.992Z,7.83
2023-01-21T17:21:49.717Z,8.33
2023-01-21T17:23:56.943Z,7.77
2023-01-21T17:26:08.395Z,7.87
2023-01-21T17:28:32.550Z,7.67
2023-01-21T17:30:34.366Z,8.13
2023-01-21T17:32:38.058Z,7.93
2023-01-21T17:34:40.367Z,8.50
2023-01-21T17:36:44.453Z,7.83
2023-01-21T17:38:47.256Z,7.90
2023-01-21T17:41:08.280Z,8.53
2023-01-21T17:43:24.288Z,8.13
2023-01-21T17:45:30.940Z,8.03
2023-01-21T17:47:42.187Z,7.43
2023-01-21T17:50:25.522Z,7.67
2023-01-21T17:52:28.289Z,7.40
2023-01-21T17:54:32.323Z,8.00
2023-01-21T17:56:59.909Z,8.20
2023-01-21T17:59:04.667Z,8.10
2023-01-21T18:01:06.707Z,7.77
2023-01-21T18:03:12.562Z,8.03
2023-01-21T18:05:17.616Z,7.83
2023-01-21T18:07:26.084Z,8.17
2023-01-21T18:09:28.391Z,7.87
2023-01-21T18:11:30.142Z,8.07
2023-01-21T18:13:31.918Z,8.63
2023-01-21T18:15:33.706Z,8.40
2023-01-21T18:17:37.555Z,8.40
2023-01-21T18:19:39.943Z,8.57
2023-01-21T18:21:41.796Z,8.60
2023-01-21T18:23:47.686Z,8.50
2023-01-21T18:25:53.518Z,8.37
2023-01-21T18:27:56.054Z,8.43
2023-01-21T18:29:58.820Z,8.63
2023-01-21T18:32:01.567Z,9.23
2023-01-21T18:34:03.940Z,8.07
2023-01-21T18:36:06.073Z,8.67
2023-01-21T18:38:31.188Z,8.10
2023-01-21T18:40:34.401Z,9.53
2023-01-21T18:42:36.064Z,7.93
2023-01-21T18:44:37.746Z,8.23
2023-01-21T18:46:43.427Z,7.93
2023-01-21T18:48:45.503Z,8.80
2023-01-21T18:50:47.241Z,8.20
2023-01-21T18:52:50.587Z,8.67
2023-01-21T18:54:55.168Z,8.47
2023-01-21T18:56:56.853Z,8.30
2023-01-21T18:58:58.620Z,8.30
2023-01-21T19:01:08.066Z,8.03
2023-01-21T19:03:18.774Z,8.57
2023-01-21T19:05:34.005Z,8.23
2023-01-21T19:07:35.895Z,8.53
2023-01-21T19:09:40.725Z,8.40
2023-01-21T19:11:42.397Z,8.70
2023-01-21T19:13:48.331Z,8.37
2023-01-21T19:15:50.431Z,8.67
2023-01-21T19:17:52.666Z,8.53
2023-01-21T19:19:56.901Z,8.73
2023-01-21T19:21:59.032Z,8.53
2023-01-21T19:24:00.733Z,8.40
2023-01-21T19:26:03.143Z,8.17
2023-01-21T19:28:05.070Z,8.20
2023-01-21T19:30:31.369Z,8.17
2023-01-21T19:32:35.055Z,8.80
2023-01-21T19:34:36.891Z,7.87
2023-01-21T19:36:39.896Z,8.47
2023-01-21T19:38:44.085Z,8.47
2023-01-21T19:40:48.722Z,8.67
2023-01-21T19:42:50.647Z,7.63
2023-01-21T19:44:52.383Z,8.47
2023-01-21T19:46:54.902Z,7.97
2023-01-21T19:48:58.202Z,7.50
2023-01-21T19:50:59.952Z,8.40
2023-01-21T19:53:02.028Z,8.40
2023-01-21T19:55:07.914Z,7.73
2023-01-21T19:57:18.436Z,8.60
2023-01-21T19:59:20.148Z,7.67
2023-01-21T20:01:21.842Z,8.57
2023-01-21T20:03:29.632Z,8.53
2023-01-21T20:05:35.526Z,7.73
2023-01-21T20:07:37.577Z,8.07
2023-01-21T20:09:39.286Z,8.37
2023-01-21T20:11:41.260Z,8.70
2023-01-21T20:13:45.340Z,8.43
2023-01-21T20:15:51.857Z,8.67
2023-01-21T20:17:58.713Z,9.07
2023-01-21T20:20:00.425Z,8.53
2023-01-21T20:22:03.111Z,8.67
2023-01-21T20:24:11.237Z,8.30
2023-01-21T20:26:19.691Z,7.90
2023-01-21T20:28:51.374Z,7.83
2023-01-21T20:30:54.540Z,7.90
2023-01-21T20:32:57.190Z,8.77
2023-01-21T20:35:00.532Z,8.67
2023-01-21T20:37:02.529Z,8.33
2023-01-21T20:39:05.028Z,8.47
2023-01-21T20:41:07.394Z,8.47
2023-01-21T20:43:10.373Z,8.57
2023-01-21T20:45:13.992Z,9.07
2023-01-21T20:47:19.188Z,8.93
2023-01-21T20:49:31.834Z,8.40
2023-01-21T20:51:36.770Z,8.57
2023-01-21T20:53:39.150Z,8.80
2023-01-21T20:55:49.599Z,8.70
2023-01-21T20:57:51.637Z,8.10
2023-01-21T20:59:53.454Z,8.73
2023-01-21T21:01:57.381Z,8.87
2023-01-21T21:03:59.255Z,8.20
2023-01-21T21:06:00.924Z,9.50
2023-01-21T21:08:03.159Z,9.20
2023-01-21T21:10:05.401Z,9.03
2023-01-21T21:12:07.104Z,8.70
2023-01-21T21:14:08.829Z,8.90
2023-01-21T21:16:17.530Z,9.03
2023-01-21T21:18:19.312Z,8.17
2023-01-21T21:20:23.741Z,8.40
2023-01-21T21:22:28.536Z,9.17
2023-01-21T21:24:32.986Z,9.63
2023-01-21T21:26:37.302Z,8.33
2023-01-21T21:28:39.055Z,9.57
2023-01-21T21:30:41.073Z,8.40
2023-01-21T21:32:45.022Z,8.83
2023-01-21T21:34:46.731Z,8.53
2023-01-21T21:36:48.444Z,9.23
2023-01-21T21:38:55.273Z,9.00
2023-01-21T21:41:17.038Z,8.37
2023-01-21T21:43:35.512Z,8.50
2023-01-21T21:45:40.710Z,8.97
2023-01-21T21:48:01.136Z,8.50
2023-01-21T21:50:02.966Z,9.23
2023-01-21T21:52:04.711Z,9.17
2023-01-21T21:54:11.530Z,9.93
2023-01-21T21:56:21.110Z,9.90
2023-01-21T21:58:24.023Z,9.33
2023-01-21T22:00:26.151Z,10.07
2023-01-21T22:02:27.816Z,9.23
2023-01-21T22:04:29.509Z,8.77
2023-01-21T22:06:33.643Z,9.50
2023-01-21T22:08:37.743Z,9.63
2023-01-21T22:10:39.399Z,9.60
2023-01-21T22:12:41.101Z,10.00
2023-01-21T22:14:42.909Z,9.00
2023-01-21T22:16:44.932Z,9.53
2023-01-21T22:18:46.857Z,9.37
2023-01-21T22:20:56.198Z,9.90
2023-01-21T22:22:59.376Z,9.77
2023-01-21T22:25:01.156Z,10.30
2023-01-21T22:27:02.934Z,9.73
2023-01-21T22:29:06.774Z,10.60
2023-01-21T22:31:15.633Z,9.87
2023-01-21T22:33:22.111Z,9.57
2023-01-21T22:35:28.359Z,10.20
2023-01-21T22:37:33.728Z,10.57
2023-01-21T22:39:35.426Z,10.47
2023-01-21T22:41:37.362Z,9.70
2023-01-21T22:43:44.647Z,10.03
2023-01-21T22:45:50.685Z,10.50
2023-01-21T22:47:55.372Z,10.47
2023-01-21T22:49:56.998Z,10.07
2023-01-21T22:52:00.306Z,10.60
2023-01-21T22:54:02.621Z,10.40
2023-01-21T22:56:05.669Z,9.93
2023-01-21T22:58:07.366Z,10.67
2023-01-21T23:00:15.975Z,10.67
2023-01-21T23:02:18.361Z,10.67
2023-01-21T23:04:27.551Z,11.07
2023-01-21T23:06:30.722Z,10.83
2023-01-21T23:08:32.453Z,10.10
2023-01-21T23:10:34.303Z,10.40
2023-01-21T23:12:36.008Z,10.93
2023-01-21T23:14:38.837Z,9.80
2023-01-21T23:16:41.467Z,11.07
2023-01-21T23:18:43.261Z,10.47
2023-01-21T23:20:46.957Z,11.33
2023-01-21T23:22:48.608Z,10.50
2023-01-21T23:24:50.396Z,10.37
2023-01-21T23:26:52.345Z,10.70
2023-01-21T23:28:56.037Z,10.97
2023-01-21T23:30:57.970Z,11.23
2023-01-21T23:33:02.409Z,10.73
2023-01-21T23:35:04.815Z,11.07
2023-01-21T23:37:06.554Z,11.17
2023-01-21T23:39:08.330Z,10.90
2023-01-21T23:41:14.019Z,10.00
2023-01-21T23:43:15.698Z,11.10
2023-01-21T23:45:19.569Z,10.50
2023-01-21T23:47:21.340Z,11.30
2023-01-21T23:49:23.293Z,10.97
2023-01-21T23:51:25.684Z,10.93
2023-01-21T23:53:28.657Z,11.27
2023-01-21T23:55:33.054Z,10.97
2023-01-21T23:57:41.573Z,11.77
2023-01-21T23:59:44.258Z,10.70
